Time;durP1;ratioP1;P1;durP2;ratioP2;P2;SDS_P1;SDS_P2;PMS_P1;PMS_P2;Temp;Humidity;BMP_temperature;BMP_pressure;BME280_temperature;BME280_humidity;BME280_pressure;Samples;Min_cycle;Max_cycle;Signal;HPM_P1;HPM_P2
2022/10/13 00:00:45;;;;;;;22.33;11.97;;;;;;;;;;5039457;28;20686;-78
2022/10/13 00:03:11;;;;;;;20.23;11.17;;;;;;;;;;5037216;28;20037;-78
2022/10/13 00:05:41;;;;;;;25.97;13.90;;;;;;;;;;5037685;28;20029;-78
2022/10/13 00:08:07;;;;;;;24.00;13.10;;;;;;;;;;5045494;28;20025;-78
2022/10/13 00:10:35;;;;;;;27.37;12.67;;;;;;;;;;5052934;28;20419;-78
2022/10/13 00:13:02;;;;;;;28.27;13.83;;;;;;;;;;5036362;28;20057;-78
2022/10/13 00:15:29;;;;;;;23.97;12.50;;;;;;;;;;5037109;28;20075;-78
2022/10/13 00:17:55;;;;;;;26.00;12.67;;;;;;;;;;5052077;28;20107;-78
2022/10/13 00:20:21;;;;;;;23.47;13.57;;;;;;;;;;5036483;28;20446;-79
2022/10/13 00:22:47;;;;;;;32.37;13.53;;;;;;;;;;5036171;28;20071;-77
2022/10/13 00:25:13;;;;;;;26.60;13.43;;;;;;;;;;5024761;28;20037;-78
2022/10/13 00:27:39;;;;;;;21.93;13.00;;;;;;;;;;5035011;28;20346;-78
2022/10/13 00:30:06;;;;;;;26.17;13.00;;;;;;;;;;5042406;28;20039;-78
2022/10/13 00:32:34;;;;;;;25.93;13.30;;;;;;;;;;5038309;28;20040;-79
2022/10/13 00:35:00;;;;;;;22.27;13.60;;;;;;;;;;5037566;28;20055;-79
2022/10/13 00:37:26;;;;;;;28.50;13.23;;;;;;;;;;5037558;28;20087;-78
2022/10/13 00:39:52;;;;;;;24.23;13.37;;;;;;;;;;5035982;28;20374;-77
2022/10/13 00:42:18;;;;;;;32.67;14.07;;;;;;;;;;5036300;28;20037;-78
2022/10/13 00:45:06;;;;;;;30.13;14.87;;;;;;;;;;5037153;28;20037;-78
2022/10/13 00:47:43;;;;;;;26.37;14.30;;;;;;;;;;5035715;28;20449;-78
2022/10/13 00:50:19;;;;;;;25.70;13.63;;;;;;;;;;5039528;28;20045;-78
2022/10/13 00:52:46;;;;;;;30.67;15.07;;;;;;;;;;5041774;28;20605;-78
2022/10/13 00:55:14;;;;;;;24.80;13.80;;;;;;;;;;5019337;28;20109;-78
2022/10/13 00:57:42;;;;;;;32.50;14.03;;;;;;;;;;5041301;28;20461;-78
2022/10/13 01:00:09;;;;;;;26.10;14.33;;;;;;;;;;5041330;28;20091;-78
2022/10/13 01:02:37;;;;;;;30.03;15.43;;;;;;;;;;5035657;28;20163;-78
2022/10/13 01:05:04;;;;;;;24.33;13.53;;;;;;;;;;5037890;28;20068;-78
2022/10/13 01:07:30;;;;;;;27.80;13.73;;;;;;;;;;5035572;28;20025;-78
2022/10/13 01:09:56;;;;;;;28.27;13.87;;;;;;;;;;5035748;28;20444;-78
2022/10/13 01:12:43;;;;;;;27.50;14.20;;;;;;;;;;5035534;28;20143;-78
2022/10/13 01:15:21;;;;;;;26.63;14.43;;;;;;;;;;5035804;28;20083;-78
2022/10/13 01:18:06;;;;;;;30.57;15.43;;;;;;;;;;5040544;28;20068;-77
2022/10/13 01:20:35;;;;;;;24.50;13.93;;;;;;;;;;5034983;28;20116;-78
2022/10/13 01:23:19;;;;;;;27.33;14.90;;;;;;;;;;5051467;28;20037;-79
2022/10/13 01:26:01;;;;;;;31.17;14.20;;;;;;;;;;5044206;28;20049;-78
2022/10/13 01:28:50;;;;;;;23.93;14.67;;;;;;;;;;5051465;28;20095;-77
2022/10/13 01:31:22;;;;;;;28.50;16.00;;;;;;;;;;5006852;28;20045;-78
2022/10/13 01:33:50;;;;;;;30.37;17.53;;;;;;;;;;5035685;28;20095;-78
2022/10/13 01:36:35;;;;;;;29.70;14.17;;;;;;;;;;5046221;28;20287;-77
2022/10/13 01:39:05;;;;;;;31.00;15.80;;;;;;;;;;5024517;28;20041;-77
2022/10/13 01:41:33;;;;;;;31.93;13.93;;;;;;;;;;5044614;28;20048;-78
2022/10/13 01:44:11;;;;;;;29.77;14.43;;;;;;;;;;5030596;28;20446;-78
2022/10/13 01:46:38;;;;;;;27.30;14.20;;;;;;;;;;5029061;28;20040;-78
2022/10/13 01:49:09;;;;;;;32.87;15.00;;;;;;;;;;5029548;28;20065;-78
2022/10/13 01:51:38;;;;;;;25.70;14.03;;;;;;;;;;5029482;28;20029;-77
2022/10/13 01:54:05;;;;;;;28.07;14.53;;;;;;;;;;5032887;28;20026;-77
2022/10/13 01:56:31;;;;;;;26.33;13.00;;;;;;;;;;5031986;28;20071;-79
2022/10/13 01:59:00;;;;;;;23.57;13.50;;;;;;;;;;5031145;28;20040;-78
2022/10/13 02:01:32;;;;;;;24.80;14.03;;;;;;;;;;5031246;28;20041;-78
2022/10/13 02:04:16;;;;;;;28.17;13.80;;;;;;;;;;5028370;28;20123;-77
2022/10/13 02:07:03;;;;;;;24.33;13.93;;;;;;;;;;5030133;28;20075;-78
2022/10/13 02:09:50;;;;;;;31.07;13.60;;;;;;;;;;5027400;28;20057;-78
2022/10/13 02:12:20;;;;;;;24.37;13.77;;;;;;;;;;5021978;28;20026;-78
2022/10/13 02:14:50;;;;;;;26.83;13.57;;;;;;;;;;5027512;28;20017;-78
2022/10/13 02:17:16;;;;;;;26.63;14.47;;;;;;;;;;5030457;28;20026;-78
2022/10/13 02:19:42;;;;;;;24.67;13.30;;;;;;;;;;5044197;28;20068;-78
2022/10/13 02:22:12;;;;;;;22.67;13.10;;;;;;;;;;5045079;28;20033;-78
2022/10/13 02:24:38;;;;;;;20.07;11.97;;;;;;;;;;5041595;28;20133;-77
2022/10/13 02:27:05;;;;;;;23.03;12.07;;;;;;;;;;5031060;28;20037;-78
2022/10/13 02:29:31;;;;;;;20.30;12.27;;;;;;;;;;5013098;28;20096;-77
2022/10/13 02:31:57;;;;;;;20.40;12.20;;;;;;;;;;5008070;28;20046;-77
2022/10/13 02:34:23;;;;;;;19.67;11.70;;;;;;;;;;4993255;28;20038;-78
2022/10/13 02:36:49;;;;;;;27.57;11.40;;;;;;;;;;5009778;28;20057;-78
2022/10/13 02:39:16;;;;;;;23.17;11.37;;;;;;;;;;4992972;28;21067;-78
2022/10/13 02:41:45;;;;;;;20.13;11.53;;;;;;;;;;5011850;28;20030;-78
2022/10/13 02:44:11;;;;;;;19.30;10.80;;;;;;;;;;4995829;28;20137;-77
2022/10/13 02:46:37;;;;;;;23.87;11.57;;;;;;;;;;5012233;28;20058;-77
2022/10/13 02:49:03;;;;;;;24.47;13.03;;;;;;;;;;5013430;28;20072;-78
2022/10/13 02:51:29;;;;;;;21.57;12.27;;;;;;;;;;4997236;28;20026;-78
2022/10/13 02:53:55;;;;;;;21.27;11.87;;;;;;;;;;5012967;28;20037;-76
2022/10/13 02:56:21;;;;;;;21.70;12.17;;;;;;;;;;5012698;28;20065;-78
2022/10/13 02:58:49;;;;;;;20.77;12.30;;;;;;;;;;5011768;28;20092;-78
2022/10/13 03:01:15;;;;;;;21.63;11.87;;;;;;;;;;5026132;28;20049;-78
2022/10/13 03:03:42;;;;;;;23.00;13.03;;;;;;;;;;5028331;28;20026;-78
2022/10/13 03:06:08;;;;;;;23.83;13.17;;;;;;;;;;5030572;28;20517;-78
2022/10/13 03:08:34;;;;;;;24.17;12.43;;;;;;;;;;5030957;28;20116;-78
2022/10/13 03:11:00;;;;;;;21.40;11.37;;;;;;;;;;5035321;28;20106;-77
2022/10/13 03:13:27;;;;;;;19.20;11.90;;;;;;;;;;5031189;28;20065;-78
2022/10/13 03:15:53;;;;;;;19.23;11.47;;;;;;;;;;5034087;28;20379;-79
2022/10/13 03:18:19;;;;;;;24.90;13.07;;;;;;;;;;5027759;28;20034;-78
2022/10/13 03:20:45;;;;;;;24.27;13.90;;;;;;;;;;5033724;28;20461;-78
2022/10/13 03:23:10;;;;;;;22.67;12.57;;;;;;;;;;5032431;28;20041;-78
2022/10/13 03:25:37;;;;;;;25.47;12.90;;;;;;;;;;5027622;28;20038;-78
2022/10/13 03:28:03;;;;;;;29.93;13.00;;;;;;;;;;5028272;28;20350;-78
2022/10/13 03:30:29;;;;;;;23.00;13.10;;;;;;;;;;5034815;28;20033;-78
2022/10/13 03:32:55;;;;;;;22.23;12.03;;;;;;;;;;5027403;28;20030;-77
2022/10/13 03:35:23;;;;;;;21.50;12.40;;;;;;;;;;5027112;28;20104;-78
2022/10/13 03:37:49;;;;;;;21.57;12.50;;;;;;;;;;5037900;28;20413;-80
2022/10/13 03:40:17;;;;;;;26.07;13.00;;;;;;;;;;5036445;28;20029;-79
2022/10/13 03:42:45;;;;;;;17.87;11.50;;;;;;;;;;5036850;28;20112;-79
2022/10/13 03:45:11;;;;;;;22.20;12.03;;;;;;;;;;5036662;28;20452;-79
2022/10/13 03:47:38;;;;;;;24.50;12.27;;;;;;;;;;5036822;28;20053;-79
2022/10/13 03:50:05;;;;;;;22.83;12.30;;;;;;;;;;5035852;28;20029;-79
2022/10/13 03:52:31;;;;;;;28.20;14.43;;;;;;;;;;5022953;28;20026;-79
2022/10/13 03:54:57;;;;;;;22.27;12.90;;;;;;;;;;5043358;28;20026;-80
2022/10/13 03:57:23;;;;;;;20.47;12.00;;;;;;;;;;5036536;28;20045;-79
2022/10/13 03:59:49;;;;;;;24.07;13.57;;;;;;;;;;5036975;28;20033;-79
2022/10/13 04:02:15;;;;;;;21.17;11.93;;;;;;;;;;5036439;28;20026;-78
2022/10/13 04:04:41;;;;;;;22.00;12.37;;;;;;;;;;5036681;28;20520;-78
2022/10/13 04:07:07;;;;;;;19.83;12.37;;;;;;;;;;5040875;28;20029;-77
2022/10/13 04:09:33;;;;;;;21.67;13.17;;;;;;;;;;5036834;28;20021;-78
2022/10/13 04:11:59;;;;;;;22.33;13.07;;;;;;;;;;5042640;28;20040;-78
2022/10/13 04:14:25;;;;;;;28.83;13.23;;;;;;;;;;5036312;28;20466;-78
2022/10/13 04:16:54;;;;;;;27.07;12.23;;;;;;;;;;5036341;28;20430;-78
2022/10/13 04:19:20;;;;;;;21.87;12.27;;;;;;;;;;5036404;28;20059;-78
2022/10/13 04:21:48;;;;;;;25.37;13.67;;;;;;;;;;5036341;28;20442;-77
2022/10/13 04:24:16;;;;;;;25.43;12.53;;;;;;;;;;5039649;28;20033;-78
2022/10/13 04:26:42;;;;;;;20.90;10.77;;;;;;;;;;5054058;28;20673;-78
2022/10/13 04:29:09;;;;;;;19.23;11.13;;;;;;;;;;5039094;28;20087;-78
2022/10/13 04:31:35;;;;;;;24.30;12.10;;;;;;;;;;5036522;28;20033;-78
2022/10/13 04:34:01;;;;;;;25.63;11.97;;;;;;;;;;5036018;28;20064;-78
2022/10/13 04:36:27;;;;;;;20.50;11.93;;;;;;;;;;5052872;28;20132;-78
2022/10/13 04:38:54;;;;;;;22.70;12.30;;;;;;;;;;5037842;28;20367;-78
2022/10/13 04:41:20;;;;;;;16.83;10.93;;;;;;;;;;5036394;28;20025;-78
2022/10/13 04:43:47;;;;;;;19.93;11.93;;;;;;;;;;5036822;28;20060;-78
2022/10/13 04:46:15;;;;;;;22.67;12.13;;;;;;;;;;5035907;28;20022;-78
2022/10/13 04:48:41;;;;;;;26.37;13.17;;;;;;;;;;5035122;28;20037;-78
2022/10/13 04:51:08;;;;;;;22.60;12.03;;;;;;;;;;5042553;28;20358;-78
2022/10/13 04:53:35;;;;;;;23.27;11.60;;;;;;;;;;5039077;28;20508;-78
2022/10/13 04:56:07;;;;;;;17.77;10.30;;;;;;;;;;5036794;28;20033;-78
2022/10/13 04:58:33;;;;;;;22.63;12.13;;;;;;;;;;5035629;28;20030;-79
2022/10/13 05:00:59;;;;;;;26.20;12.77;;;;;;;;;;5035476;28;20052;-78
2022/10/13 05:03:25;;;;;;;19.60;11.13;;;;;;;;;;5022029;28;20705;-78
2022/10/13 05:05:52;;;;;;;23.50;11.43;;;;;;;;;;5034449;28;20473;-80
2022/10/13 05:08:20;;;;;;;21.13;12.77;;;;;;;;;;5036217;28;20021;-78
2022/10/13 05:10:58;;;;;;;22.47;12.73;;;;;;;;;;5035421;28;20029;-77
2022/10/13 05:13:24;;;;;;;27.33;14.23;;;;;;;;;;5034918;28;20171;-78
2022/10/13 05:15:50;;;;;;;29.67;14.37;;;;;;;;;;5048199;28;20034;-78
2022/10/13 05:18:16;;;;;;;24.17;12.07;;;;;;;;;;5025748;28;20029;-78
2022/10/13 05:20:42;;;;;;;19.60;12.40;;;;;;;;;;5034917;28;20040;-78
2022/10/13 05:23:09;;;;;;;21.97;11.77;;;;;;;;;;5022630;28;20037;-78
2022/10/13 05:25:35;;;;;;;21.03;10.97;;;;;;;;;;5041868;28;20026;-78
2022/10/13 05:28:01;;;;;;;20.87;11.07;;;;;;;;;;5034562;28;20086;-78
2022/10/13 05:30:27;;;;;;;19.07;11.00;;;;;;;;;;5034799;28;20029;-78
2022/10/13 05:32:53;;;;;;;22.73;11.10;;;;;;;;;;5035774;28;20025;-78
2022/10/13 05:35:19;;;;;;;24.37;11.73;;;;;;;;;;5033661;28;20041;-78
2022/10/13 05:37:45;;;;;;;23.10;12.73;;;;;;;;;;5017703;28;20033;-78
2022/10/13 05:40:11;;;;;;;16.33;10.93;;;;;;;;;;5030461;28;20123;-78
2022/10/13 05:42:41;;;;;;;21.77;11.10;;;;;;;;;;5024337;28;20081;-78
2022/10/13 05:45:10;;;;;;;19.77;11.97;;;;;;;;;;5034599;28;20143;-78
2022/10/13 05:47:38;;;;;;;26.17;14.70;;;;;;;;;;5033836;28;20026;-78
2022/10/13 05:50:05;;;;;;;23.60;12.23;;;;;;;;;;5033501;28;20121;-77
2022/10/13 05:52:37;;;;;;;25.63;11.93;;;;;;;;;;5004540;28;20032;-78
2022/10/13 05:55:04;;;;;;;25.53;12.97;;;;;;;;;;5030587;28;20037;-77
2022/10/13 05:57:34;;;;;;;22.63;11.87;;;;;;;;;;5031745;28;20081;-78
2022/10/13 06:00:05;;;;;;;21.47;12.30;;;;;;;;;;5016040;28;20033;-78
2022/10/13 06:02:33;;;;;;;23.83;11.93;;;;;;;;;;5028026;28;20034;-78
2022/10/13 06:05:02;;;;;;;20.40;11.33;;;;;;;;;;5012024;28;20039;-78
2022/10/13 06:07:29;;;;;;;18.53;11.60;;;;;;;;;;5044360;28;20034;-78
2022/10/13 06:09:58;;;;;;;21.83;11.43;;;;;;;;;;5027088;28;20025;-78
2022/10/13 06:12:30;;;;;;;21.63;10.23;;;;;;;;;;5034782;28;20427;-77
2022/10/13 06:14:56;;;;;;;18.10;11.05;;;;;;;;;;5034008;28;20086;-78
2022/10/13 06:17:22;;;;;;;21.13;10.83;;;;;;;;;;5034116;28;20041;-79
2022/10/13 06:19:48;;;;;;;19.23;11.27;;;;;;;;;;5045616;28;20029;-78
2022/10/13 06:22:16;;;;;;;23.40;10.47;;;;;;;;;;5028989;28;20055;-78
2022/10/13 06:24:42;;;;;;;22.00;11.97;;;;;;;;;;5034329;28;20029;-78
2022/10/13 06:27:15;;;;;;;20.47;12.43;;;;;;;;;;5034017;28;20084;-78
2022/10/13 06:29:41;;;;;;;20.20;10.57;;;;;;;;;;5033984;28;20037;-78
2022/10/13 06:32:09;;;;;;;21.40;10.43;;;;;;;;;;5032177;28;20095;-79
2022/10/13 06:34:36;;;;;;;21.17;10.10;;;;;;;;;;5023433;28;20172;-78
2022/10/13 06:37:06;;;;;;;22.03;10.97;;;;;;;;;;5045034;28;20038;-78
2022/10/13 06:39:36;;;;;;;24.40;10.73;;;;;;;;;;5027486;28;20061;-78
2022/10/13 06:42:02;;;;;;;14.63;9.77;;;;;;;;;;5050029;28;20037;-78
2022/10/13 06:44:29;;;;;;;22.80;10.50;;;;;;;;;;5043826;28;20124;-78
2022/10/13 06:46:55;;;;;;;20.53;10.30;;;;;;;;;;5035911;28;20064;-79
2022/10/13 06:49:23;;;;;;;17.37;9.30;;;;;;;;;;5039809;28;20026;-78
2022/10/13 06:51:49;;;;;;;14.60;9.97;;;;;;;;;;5035568;28;20461;-78
2022/10/13 06:54:15;;;;;;;18.63;9.10;;;;;;;;;;5027469;28;20039;-77
2022/10/13 06:56:41;;;;;;;14.80;8.77;;;;;;;;;;5032058;28;20086;-78
2022/10/13 06:59:09;;;;;;;16.93;9.53;;;;;;;;;;5034446;28;20069;-78
2022/10/13 07:01:35;;;;;;;16.70;8.27;;;;;;;;;;5034104;28;20477;-78
2022/10/13 07:04:01;;;;;;;19.60;9.30;;;;;;;;;;5035626;28;20034;-78
2022/10/13 07:06:27;;;;;;;22.23;8.77;;;;;;;;;;5034372;28;20101;-78
2022/10/13 07:08:55;;;;;;;13.60;8.97;;;;;;;;;;5033965;28;20147;-77
2022/10/13 07:11:21;;;;;;;13.83;8.60;;;;;;;;;;5034100;28;20077;-76
2022/10/13 07:13:47;;;;;;;18.80;9.40;;;;;;;;;;5020061;28;20057;-77
2022/10/13 07:16:13;;;;;;;17.43;8.90;;;;;;;;;;5036129;28;20033;-77
2022/10/13 07:18:39;;;;;;;15.73;8.67;;;;;;;;;;5038552;28;20231;-78
2022/10/13 07:21:05;;;;;;;17.83;9.10;;;;;;;;;;5033960;28;20052;-78
2022/10/13 07:23:31;;;;;;;17.07;8.10;;;;;;;;;;5034005;28;20026;-78
2022/10/13 07:25:58;;;;;;;17.47;8.60;;;;;;;;;;5034826;28;20030;-78
2022/10/13 07:28:24;;;;;;;16.30;9.10;;;;;;;;;;5037201;28;20033;-78
2022/10/13 07:30:53;;;;;;;16.60;9.30;;;;;;;;;;5038078;28;20033;-78
2022/10/13 07:33:19;;;;;;;18.10;9.43;;;;;;;;;;5037330;28;20033;-78
2022/10/13 07:35:45;;;;;;;14.03;8.37;;;;;;;;;;5034928;28;20029;-77
2022/10/13 07:38:12;;;;;;;16.93;8.83;;;;;;;;;;5028376;28;20037;-77
2022/10/13 07:40:38;;;;;;;16.07;8.57;;;;;;;;;;5029841;28;20030;-77
2022/10/13 07:43:04;;;;;;;16.67;9.47;;;;;;;;;;5033225;28;20072;-77
2022/10/13 07:45:30;;;;;;;19.03;9.63;;;;;;;;;;5036607;28;20036;-77
2022/10/13 07:47:56;;;;;;;18.43;10.20;;;;;;;;;;5028812;28;20469;-78
2022/10/13 07:50:22;;;;;;;14.33;8.60;;;;;;;;;;5028919;28;20022;-75
2022/10/13 07:52:48;;;;;;;13.77;8.50;;;;;;;;;;5032466;28;20041;-75
2022/10/13 07:55:17;;;;;;;15.40;9.37;;;;;;;;;;5026840;28;20037;-75
2022/10/13 07:57:43;;;;;;;17.57;9.90;;;;;;;;;;5022268;28;20848;-75
2022/10/13 08:00:10;;;;;;;20.23;9.07;;;;;;;;;;5040010;28;20037;-76
2022/10/13 08:02:38;;;;;;;16.33;8.43;;;;;;;;;;5029299;28;20032;-76
2022/10/13 08:05:04;;;;;;;18.47;9.23;;;;;;;;;;5029174;28;20033;-76
2022/10/13 08:07:30;;;;;;;15.07;8.90;;;;;;;;;;5032241;28;20037;-76
2022/10/13 08:09:57;;;;;;;17.23;9.23;;;;;;;;;;5031685;28;20026;-77
2022/10/13 08:12:23;;;;;;;13.20;7.87;;;;;;;;;;5027923;28;20030;-77
2022/10/13 08:14:52;;;;;;;15.67;8.00;;;;;;;;;;5028530;28;20026;-78
2022/10/13 08:17:18;;;;;;;18.17;8.33;;;;;;;;;;5029694;28;20033;-76
2022/10/13 08:19:44;;;;;;;18.63;8.93;;;;;;;;;;5029789;28;20883;-76
2022/10/13 08:22:11;;;;;;;17.70;8.97;;;;;;;;;;5033381;28;20044;-77
2022/10/13 08:24:37;;;;;;;20.40;8.25;;;;;;;;;;5034303;28;20363;-77
2022/10/13 08:27:05;;;;;;;12.07;7.73;;;;;;;;;;5029040;28;20029;-79
2022/10/13 08:29:31;;;;;;;16.95;8.65;;;;;;;;;;5035128;28;20124;-78
2022/10/13 08:31:57;;;;;;;17.55;8.65;;;;;;;;;;5030550;28;20018;-77
2022/10/13 08:34:24;;;;;;;14.87;8.37;;;;;;;;;;5031148;28;20040;-77
2022/10/13 08:36:53;;;;;;;18.87;9.23;;;;;;;;;;5043317;28;20025;-78
2022/10/13 08:39:19;;;;;;;13.23;8.30;;;;;;;;;;5036456;28;20041;-77
2022/10/13 08:41:45;;;;;;;18.10;10.20;;;;;;;;;;5025904;28;20098;-77
2022/10/13 08:44:30;;;;;;;15.98;8.13;;;;;;;;;;5027750;28;20047;-77
2022/10/13 08:47:03;;;;;;;15.00;8.75;;;;;;;;;;5028704;28;20025;-76
2022/10/13 08:49:29;;;;;;;13.13;8.23;;;;;;;;;;5028728;28;20033;-77
2022/10/13 08:51:57;;;;;;;11.93;7.80;;;;;;;;;;5032156;28;20064;-77
2022/10/13 08:54:24;;;;;;;14.90;7.65;;;;;;;;;;5046875;28;20085;-77
2022/10/13 08:56:50;;;;;;;16.90;8.73;;;;;;;;;;5032496;28;20046;-77
2022/10/13 08:59:17;;;;;;;13.15;8.65;;;;;;;;;;5031725;28;20453;-78
2022/10/13 09:01:47;;;;;;;16.13;8.35;;;;;;;;;;5031911;28;20033;-78
2022/10/13 09:04:28;;;;;;;12.32;7.72;;;;;;;;;;5029992;28;20029;-78
2022/10/13 09:06:56;;;;;;;14.02;7.65;;;;;;;;;;5032637;28;20033;-77
2022/10/13 09:09:22;;;;;;;11.18;7.70;;;;;;;;;;5031400;28;20026;-78
2022/10/13 09:11:49;;;;;;;13.80;8.27;;;;;;;;;;5029725;28;20017;-78
2022/10/13 09:14:21;;;;;;;13.02;7.82;;;;;;;;;;5027410;28;20033;-78
2022/10/13 09:16:50;;;;;;;16.38;7.18;;;;;;;;;;5026747;28;20025;-77
2022/10/13 09:19:32;;;;;;;25.15;8.73;;;;;;;;;;5027822;28;20100;-78
2022/10/13 09:22:19;;;;;;;11.55;7.32;;;;;;;;;;5025592;28;20017;-78
2022/10/13 09:24:45;;;;;;;13.98;7.40;;;;;;;;;;5029547;28;20045;-78
2022/10/13 09:27:13;;;;;;;14.80;8.27;;;;;;;;;;5027371;28;20037;-78
2022/10/13 09:29:39;;;;;;;16.90;8.13;;;;;;;;;;5026020;28;20026;-78
2022/10/13 09:32:16;;;;;;;20.33;8.23;;;;;;;;;;5034353;28;20128;-78
2022/10/13 09:34:42;;;;;;;14.18;8.73;;;;;;;;;;5029310;28;20164;-78
2022/10/13 09:37:23;;;;;;;15.23;8.18;;;;;;;;;;5039903;28;20037;-78
2022/10/13 09:40:01;;;;;;;11.48;7.75;;;;;;;;;;5035782;28;20048;-78
2022/10/13 09:42:28;;;;;;;14.95;7.68;;;;;;;;;;5039099;28;20041;-78
2022/10/13 09:44:59;;;;;;;14.95;7.93;;;;;;;;;;5034821;28;20053;-78
2022/10/13 09:47:26;;;;;;;11.27;6.93;;;;;;;;;;5035360;28;20365;-78
2022/10/13 09:50:11;;;;;;;15.30;8.93;;;;;;;;;;5037033;28;20021;-78
2022/10/13 09:52:37;;;;;;;14.52;7.15;;;;;;;;;;5040375;28;20030;-79
2022/10/13 09:55:22;;;;;;;12.20;7.38;;;;;;;;;;5037389;28;20025;-78
2022/10/13 09:57:54;;;;;;;10.60;7.55;;;;;;;;;;5046418;28;20040;-78
2022/10/13 10:00:21;;;;;;;16.13;7.53;;;;;;;;;;5037572;28;20048;-78
2022/10/13 10:02:50;;;;;;;16.58;7.32;;;;;;;;;;5047816;28;20132;-78
2022/10/13 10:05:28;;;;;;;16.52;7.53;;;;;;;;;;5034128;28;20033;-78
2022/10/13 10:07:59;;;;;;;12.45;7.55;;;;;;;;;;5035699;28;20029;-79
2022/10/13 10:10:33;;;;;;;13.10;8.10;;;;;;;;;;5039963;28;20120;-78
2022/10/13 10:13:01;;;;;;;13.98;7.85;;;;;;;;;;5034691;28;20056;-78
2022/10/13 10:15:37;;;;;;;14.15;7.85;;;;;;;;;;5035055;28;20450;-78
2022/10/13 10:18:07;;;;;;;14.80;8.05;;;;;;;;;;5035498;28;20068;-79
2022/10/13 10:20:36;;;;;;;17.17;7.15;;;;;;;;;;5035331;28;20777;-79
2022/10/13 10:23:22;;;;;;;11.48;6.78;;;;;;;;;;5034172;28;20124;-78
2022/10/13 10:25:48;;;;;;;12.27;7.40;;;;;;;;;;5035428;28;20113;-78
2022/10/13 10:28:23;;;;;;;10.75;7.13;;;;;;;;;;5034236;28;20049;-79
2022/10/13 10:30:54;;;;;;;12.90;7.53;;;;;;;;;;5035134;28;20469;-78
2022/10/13 10:33:23;;;;;;;10.60;6.50;;;;;;;;;;5034288;28;20017;-78
2022/10/13 10:35:49;;;;;;;14.30;7.32;;;;;;;;;;5034732;28;20038;-78
2022/10/13 10:38:15;;;;;;;15.73;6.85;;;;;;;;;;5035239;28;20037;-79
2022/10/13 10:40:50;;;;;;;13.27;7.70;;;;;;;;;;5035258;28;20037;-79
2022/10/13 10:43:16;;;;;;;11.55;7.35;;;;;;;;;;5038980;28;20033;-78
2022/10/13 10:45:43;;;;;;;15.95;8.02;;;;;;;;;;5034160;28;20439;-79
2022/10/13 10:48:18;;;;;;;11.23;7.03;;;;;;;;;;5040313;28;20037;-79
2022/10/13 10:50:44;;;;;;;16.58;6.63;;;;;;;;;;5043839;28;20088;-78
2022/10/13 10:53:13;;;;;;;11.90;7.38;;;;;;;;;;5027752;28;20095;-79
2022/10/13 10:56:00;;;;;;;10.50;7.10;;;;;;;;;;5037067;28;20037;-79
2022/10/13 10:58:35;;;;;;;13.30;7.03;;;;;;;;;;5035430;28;20029;-78
2022/10/13 11:01:16;;;;;;;11.25;6.78;;;;;;;;;;5034009;28;20037;-80
2022/10/13 11:03:54;;;;;;;14.65;7.60;;;;;;;;;;5039011;28;20104;-79
2022/10/13 11:06:20;;;;;;;12.45;6.70;;;;;;;;;;5037530;28;20110;-79
2022/10/13 11:08:47;;;;;;;13.43;7.10;;;;;;;;;;5037727;28;20454;-78
2022/10/13 11:11:22;;;;;;;11.85;5.93;;;;;;;;;;5038285;28;20021;-79
2022/10/13 11:13:50;;;;;;;11.55;7.78;;;;;;;;;;5042766;28;20104;-79
2022/10/13 11:16:26;;;;;;;14.10;7.03;;;;;;;;;;5050845;28;20029;-80
2022/10/13 11:19:04;;;;;;;13.43;7.82;;;;;;;;;;5037826;28;20030;-78
2022/10/13 11:21:49;;;;;;;14.00;6.53;;;;;;;;;;5026845;28;20084;-78
2022/10/13 11:24:37;;;;;;;9.48;6.00;;;;;;;;;;5037341;28;20033;-79
2022/10/13 11:27:15;;;;;;;18.15;7.57;;;;;;;;;;5032002;28;20057;-79
2022/10/13 11:29:52;;;;;;;13.73;7.05;;;;;;;;;;5031766;28;20026;-78
2022/10/13 11:32:25;;;;;;;11.73;6.75;;;;;;;;;;5047432;28;20026;-79
2022/10/13 11:35:01;;;;;;;12.02;6.68;;;;;;;;;;5034522;28;20036;-78
2022/10/13 11:37:47;;;;;;;10.45;5.80;;;;;;;;;;5037298;28;20373;-79
2022/10/13 11:40:13;;;;;;;9.63;4.90;;;;;;;;;;5023771;28;20072;-79
2022/10/13 11:42:50;;;;;;;6.65;4.20;;;;;;;;;;5036942;28;20610;-80
2022/10/13 11:45:30;;;;;;;8.68;4.07;;;;;;;;;;5033771;28;20461;-79
2022/10/13 11:48:14;;;;;;;7.18;2.67;;;;;;;;;;5029757;28;20018;-79
2022/10/13 11:50:40;;;;;;;7.07;3.53;;;;;;;;;;5024396;28;20041;-79
2022/10/13 11:53:10;;;;;;;8.30;3.45;;;;;;;;;;5037264;28;20026;-79
2022/10/13 11:55:42;;;;;;;11.65;4.38;;;;;;;;;;5037239;28;20033;-80
2022/10/13 11:58:14;;;;;;;7.43;3.35;;;;;;;;;;5036944;28;20048;-79
2022/10/13 12:00:58;;;;;;;5.50;3.53;;;;;;;;;;5032838;28;20454;-79
2022/10/13 12:03:32;;;;;;;8.63;3.85;;;;;;;;;;5037484;28;20065;-79
2022/10/13 12:06:06;;;;;;;3.40;2.67;;;;;;;;;;5024522;28;20025;-79
2022/10/13 12:08:34;;;;;;;8.43;4.03;;;;;;;;;;5037262;28;20033;-79
2022/10/13 12:11:02;;;;;;;6.55;3.60;;;;;;;;;;5037541;28;20026;-79
2022/10/13 12:13:30;;;;;;;8.30;4.00;;;;;;;;;;5036197;28;20029;-79
2022/10/13 12:16:02;;;;;;;11.15;4.30;;;;;;;;;;5031191;28;20037;-79
2022/10/13 12:18:32;;;;;;;9.93;3.28;;;;;;;;;;5037551;28;20029;-79
2022/10/13 12:20:59;;;;;;;8.05;3.65;;;;;;;;;;5039615;28;20060;-80
2022/10/13 12:23:26;;;;;;;8.30;3.88;;;;;;;;;;5047794;28;20037;-79
2022/10/13 12:25:57;;;;;;;5.72;3.30;;;;;;;;;;5038037;28;20604;-80
2022/10/13 12:28:24;;;;;;;7.50;3.90;;;;;;;;;;5051436;28;20056;-80
2022/10/13 12:30:54;;;;;;;8.45;4.07;;;;;;;;;;5039023;28;20039;-79
2022/10/13 12:33:30;;;;;;;6.78;3.25;;;;;;;;;;5030359;28;20037;-79
2022/10/13 12:36:10;;;;;;;7.32;3.53;;;;;;;;;;5030409;28;20029;-80
2022/10/13 12:38:37;;;;;;;9.07;3.33;;;;;;;;;;5042356;28;20108;-80
2022/10/13 12:41:03;;;;;;;8.13;3.60;;;;;;;;;;5039648;28;20025;-79
2022/10/13 12:43:29;;;;;;;7.22;4.03;;;;;;;;;;5036523;28;20029;-79
2022/10/13 12:45:55;;;;;;;8.48;4.10;;;;;;;;;;5036931;28;20035;-79
2022/10/13 12:48:32;;;;;;;9.93;4.03;;;;;;;;;;5043961;28;20041;-79
2022/10/13 12:51:16;;;;;;;10.30;4.45;;;;;;;;;;5036664;28;20033;-80
2022/10/13 12:53:43;;;;;;;8.15;4.80;;;;;;;;;;5037160;28;20065;-79
2022/10/13 12:56:18;;;;;;;12.73;4.25;;;;;;;;;;5036320;28;20034;-80
2022/10/13 12:58:45;;;;;;;7.93;4.05;;;;;;;;;;5039678;28;20041;-79
2022/10/13 13:01:11;;;;;;;7.05;4.43;;;;;;;;;;5047180;28;20140;-79
2022/10/13 13:03:38;;;;;;;8.55;4.53;;;;;;;;;;5027200;28;20417;-79
2022/10/13 13:06:13;;;;;;;9.25;4.28;;;;;;;;;;5035655;28;20080;-79
2022/10/13 13:08:42;;;;;;;8.43;4.20;;;;;;;;;;5036285;28;20450;-79
2022/10/13 13:11:32;;;;;;;8.95;4.43;;;;;;;;;;5036602;28;20079;-80
2022/10/13 13:14:21;;;;;;;6.13;4.60;;;;;;;;;;5036545;28;20346;-79
2022/10/13 13:17:21;;;;;;;8.38;5.15;;;;;;;;;;5023582;28;20029;-79
2022/10/13 13:19:52;;;;;;;7.22;4.30;;;;;;;;;;5009459;28;20354;-79
2022/10/13 13:22:18;;;;;;;6.82;4.28;;;;;;;;;;5035538;28;20036;-78
2022/10/13 13:24:46;;;;;;;9.00;4.07;;;;;;;;;;5048550;28;20041;-79
2022/10/13 13:27:15;;;;;;;4.38;3.72;;;;;;;;;;5036019;28;20060;-79
2022/10/13 13:29:41;;;;;;;5.93;4.53;;;;;;;;;;5038392;28;20033;-79
2022/10/13 13:32:11;;;;;;;5.75;4.22;;;;;;;;;;5044009;28;20112;-79
2022/10/13 13:34:37;;;;;;;6.72;4.63;;;;;;;;;;5034770;28;20029;-79
2022/10/13 13:37:03;;;;;;;8.00;4.88;;;;;;;;;;5032110;28;20036;-78
2022/10/13 13:39:30;;;;;;;7.68;4.90;;;;;;;;;;5028607;28;20175;-79
2022/10/13 13:41:56;;;;;;;9.48;5.13;;;;;;;;;;5044098;28;20120;-78
2022/10/13 13:44:22;;;;;;;12.18;5.20;;;;;;;;;;5031370;28;21828;-78
2022/10/13 13:46:48;;;;;;;8.90;5.00;;;;;;;;;;5030572;28;20021;-78
2022/10/13 13:49:15;;;;;;;12.95;5.82;;;;;;;;;;5026904;28;20029;-78
2022/10/13 13:51:41;;;;;;;9.80;5.15;;;;;;;;;;5032270;28;20116;-79
2022/10/13 13:54:07;;;;;;;14.57;6.43;;;;;;;;;;5042109;28;20022;-78
2022/10/13 13:56:34;;;;;;;9.25;6.05;;;;;;;;;;5044227;28;20040;-79
2022/10/13 13:59:00;;;;;;;7.82;5.13;;;;;;;;;;5032359;28;20053;-79
2022/10/13 14:01:31;;;;;;;13.45;5.75;;;;;;;;;;5040073;28;20042;-79
2022/10/13 14:03:57;;;;;;;8.40;5.85;;;;;;;;;;5030514;28;20046;-79
2022/10/13 14:06:23;;;;;;;9.10;5.65;;;;;;;;;;5036937;28;20064;-79
2022/10/13 14:08:49;;;;;;;10.38;6.15;;;;;;;;;;5032939;28;20085;-79
2022/10/13 14:11:15;;;;;;;10.68;5.95;;;;;;;;;;5047125;28;20112;-78
2022/10/13 14:13:41;;;;;;;11.65;6.30;;;;;;;;;;5025845;28;20612;-79
2022/10/13 14:16:12;;;;;;;10.68;6.82;;;;;;;;;;5025631;28;20029;-79
2022/10/13 14:18:40;;;;;;;19.38;7.35;;;;;;;;;;5031329;28;20030;-79
2022/10/13 14:21:07;;;;;;;13.98;7.15;;;;;;;;;;5029744;28;20022;-79
2022/10/13 14:23:33;;;;;;;17.23;7.22;;;;;;;;;;5035169;28;20025;-79
2022/10/13 14:26:06;;;;;;;11.75;7.10;;;;;;;;;;5031055;28;20143;-78
2022/10/13 14:28:33;;;;;;;13.88;7.13;;;;;;;;;;5025695;28;20084;-79
2022/10/13 14:31:01;;;;;;;11.75;6.72;;;;;;;;;;5029329;28;20040;-79
2022/10/13 14:33:27;;;;;;;11.13;6.65;;;;;;;;;;5047004;28;20026;-78
2022/10/13 14:35:58;;;;;;;11.75;8.65;;;;;;;;;;5027965;28;20113;-79
2022/10/13 14:38:27;;;;;;;15.17;9.03;;;;;;;;;;5031720;28;20029;-79